Athena, OR

12:48 AM PDT on April 25, 2015 (GMT -0700)
Meacham | | Change Station
CLOSE
Current Station
Airport
Location: Meacham,
Elevation: 3720 ft
Nearby Weather Stations

Elev 3720 ft 45.51 °N, 118.42 °W | Updated 52 minutes ago

Overcast
Overcast
33 °F
Feels Like 33 °F
N
0
Wind Variable Wind from North

Today
High -- | Low -- °F
--% Chance of Precip.
Yesterday
High -- | Low -- °F
Precip. -- in
5:51 AM 7:53 PM
Waxing Crescent, 43% visible
Pressure 29.87 in
Visibility 10.0 miles
Clouds Few 1800 ft
Scattered Clouds 8000 ft
Mostly Cloudy 12000 ft
Dew Point 29 °F
Humidity 85%
Rainfall 0.01 in
Snow Depth Not available.
UV 0 out of 12
Pollen 10.40 out of 12
Air Quality Not available.
Flu Activity Sporadic
METAR KMEH 250656Z AUTO 00000KT 10SM FEW018 SCT080 BKN120 01/M02 A2984 RMK AO2 SLP115 T00061017

More Conditions Fewer Conditions

Pressure 29.87 in
Visibility 10.0 miles
Clouds Few 1800 ft
Scattered Clouds 8000 ft
Mostly Cloudy 12000 ft
Dew Point 29 °F
Humidity 85%
Rainfall 0.01 in
Snow Depth Not available.
UV 0 out of 12
Pollen 10.40 out of 12
Air Quality Not available.
Flu Activity Sporadic
METAR KMEH 250656Z AUTO 00000KT 10SM FEW018 SCT080 BKN120 01/M02 A2984 RMK AO2 SLP115 T00061017

More Conditions Fewer Conditions

10-Day Weather Forecast

Almanac

Astronomy

Apr. 25, 2015 Rise Set
Actual Time
Civil Twilight
Nautical Twilight
Astronomical Twilight
Moon
Length of Visible Light
Length of Day
Tomorrow will be .
, % of the Moon is Illuminated

Today's Extremes

State Highs State Lows

Community

WunderPhotos

Upload Photos

1,816,624 photos uploaded!

WunderBlogs® & News

Nearby

Air Quality

  Air Quality AQ Index Pollutant
Not available.

Snow Depth

Station Depth Elevation

Earthquake Activity

City Distance Mag. Time & Date
Minimum magnitude displayed is 2.5.

Coastal Water Temperatures

Place Temperature

Stations

Nearby Weather Stations

Station Location Temp. Windchill Dew Point Humidity Wind Precip. Elev Updated Type